Hovedside
METAR-TAF:

METAR-TAF

Lufthavner :

Vamdrup

Kolding, Danmark

breddegrad: 55-26N, lengdegrad: 009-20E, høyde over havet: 44 m

Gjeldene værobservasjon

Denne rapporten ble laget for 1 time og 9 minutter siden, klokken 13:50 UTC
Vind 11 kt fra Vest-nordvest
Temperatur 4°C
Luftfuktighet 81%
Trykk 1015 hPa
Sikt 10 km eller mer
ingen skyer under 1500 m og ingen bygeskyer

METAR: EKVD 211350Z 29011KT CAVOK 04/01 Q1015

Tid: 15:59 (14:59 UTC)

Varsel

Denne rapporten ble laget for 3 timer og 7 minutter siden, klokken 11:52 UTC
Varsel gyldig fra 21. klokken 12 UTC til 21. klokken 17 UTC
Vind 10 kt fra Vest
Sikt 10 km eller mer
Spredte skyer i en høyde av 2000 ft
Midlertidig
fra 21. klokken 12 UTC til 21. klokken 13 UTC
Sikt: 3000 m
Brutte skyer i en høyde av 1500 ft, Tårnskyer (cumulus).
regnbyger, snø, dis

TAF: EKVD 211152Z 2112/2117 27010KT 9999 SCT020 TEMPO 2112/2113 3000 SHRASN BR BKN015TCU

Værobservasjoner og værvarsel for over 4000 flyplasser (METAR- og TAF-rapporter).

Tilgjengelige stasjoner er representert av de røde og gule prikkene på kartet.

Hold musepekeren over prikken for å se navnet på stasjonen.

Klikk så for å se værobservasjoner og -varsler.

For å forandre kartet kan du klikke på den grønne knappen med svart kryss for å zoome inn, på den grønne knappen med strek for å zoome ut, eller på de grønne pilene for å se tilstøtende kart.


METAR-TAF: